Time,TemperatureF,DewpointF,PressureIn,WindDirection,WindDirectionDegrees,WindSpeedMPH,WindSpeedGustMPH,Humidity,HourlyPrecipIn,Conditions,Clouds,dailyrainin,SoftwareType,DateUTC
2013-05-14 00:01:00,41.0,31.8,30.15,West,270,0.0,0.0,70,0.00,,BKN220,0.00,VWS V14.01,2013-05-14 04:01:00,
2013-05-14 00:06:00,41.2,32.0,30.15,West,270,0.0,0.0,70,0.00,,BKN220,0.00,VWS V14.01,2013-05-14 04:06:00,
2013-05-14 00:11:00,41.4,32.2,30.15,West,270,0.0,0.0,70,0.00,,BKN220,0.00,VWS V14.01,2013-05-14 04:11:00,
2013-05-14 00:16:00,41.4,32.0,30.15,West,270,0.0,0.0,69,0.00,,BKN220,0.00,VWS V14.01,2013-05-14 04:16:00,
2013-05-14 00:22:00,41.5,32.3,30.15,West,270,0.0,0.0,70,0.00,,BKN220,0.00,VWS V14.01,2013-05-14 04:22:00,
2013-05-14 00:27:00,41.7,32.3,30.15,West,270,0.0,0.0,69,0.00,,BKN220,0.00,VWS V14.01,2013-05-14 04:27:00,
2013-05-14 00:32:00,41.7,32.3,30.15,West,270,0.0,0.0,69,0.00,,BKN220,0.00,VWS V14.01,2013-05-14 04:32:00,
2013-05-14 00:37:00,41.9,32.5,30.12,West,270,0.0,0.0,69,0.00,,BKN220,0.00,VWS V14.01,2013-05-14 04:37:00,
2013-05-14 00:42:00,41.9,32.5,30.12,West,270,0.0,0.0,69,0.00,,BKN220,0.00,VWS V14.01,2013-05-14 04:42:00,
2013-05-14 00:47:00,41.7,32.3,30.12,West,270,0.0,0.0,69,0.00,,BKN220,0.00,VWS V14.01,2013-05-14 04:47:00,
2013-05-14 00:52:00,41.7,32.3,30.12,West,270,0.0,0.0,69,0.00,,BKN220,0.00,VWS V14.01,2013-05-14 04:52:00,
2013-05-14 00:57:00,41.7,32.3,30.12,West,270,0.0,0.0,69,0.00,,BKN220,0.00,VWS V14.01,2013-05-14 04:57:00,
2013-05-14 01:02:00,41.5,32.1,30.12,West,270,0.0,0.0,69,0.00,,CLR,0.00,VWS V14.01,2013-05-14 05:02:00,
2013-05-14 01:07:00,41.4,32.0,30.12,West,270,0.0,0.0,69,0.00,,CLR,0.00,VWS V14.01,2013-05-14 05:07:00,
2013-05-14 01:12:00,41.2,31.8,30.12,West,270,0.0,0.0,69,0.00,,CLR,0.00,VWS V14.01,2013-05-14 05:12:00,
2013-05-14 01:17:00,41.0,31.8,30.12,West,270,0.0,0.0,70,0.00,,CLR,0.00,VWS V14.01,2013-05-14 05:17:00,
2013-05-14 01:22:00,41.0,31.8,30.12,West,270,0.0,0.0,70,0.00,,CLR,0.00,VWS V14.01,2013-05-14 05:22:00,
2013-05-14 01:27:00,41.0,31.8,30.12,West,270,0.0,0.0,70,0.00,,CLR,0.00,VWS V14.01,2013-05-14 05:27:00,
2013-05-14 01:32:00,41.0,31.8,30.12,West,270,0.0,0.0,70,0.00,,CLR,0.00,VWS V14.01,2013-05-14 05:32:00,
2013-05-14 01:37:00,41.0,31.8,30.09,West,270,0.0,0.0,70,0.00,,CLR,0.00,VWS V14.01,2013-05-14 05:37:00,
2013-05-14 01:42:00,41.0,31.8,30.09,South,180,0.0,0.0,70,0.00,,CLR,0.00,VWS V14.01,2013-05-14 05:42:00,
2013-05-14 01:47:00,40.8,31.6,30.09,South,180,0.0,0.0,70,0.00,,CLR,0.00,VWS V14.01,2013-05-14 05:47:00,
2013-05-14 01:52:00,40.6,31.6,30.12,South,180,0.0,0.0,70,0.00,,CLR,0.00,VWS V14.01,2013-05-14 05:52:00,
2013-05-14 01:57:00,40.6,31.6,30.12,South,180,0.0,0.0,70,0.00,,CLR,0.00,VWS V14.01,2013-05-14 05:57:00,
2013-05-14 02:02:00,40.6,31.6,30.12,South,180,0.0,0.0,70,0.00,,FEW120,0.00,VWS V14.01,2013-05-14 06:02:00,
2013-05-14 02:07:00,40.6,31.6,30.09,South,180,0.0,0.0,70,0.00,,FEW120,0.00,VWS V14.01,2013-05-14 06:07:00,
2013-05-14 02:12:00,40.6,31.6,30.09,South,180,0.0,0.0,70,0.00,,FEW120,0.00,VWS V14.01,2013-05-14 06:12:00,
2013-05-14 02:17:00,40.8,31.8,30.09,SSE,158,0.0,0.0,70,0.00,,FEW120,0.00,VWS V14.01,2013-05-14 06:17:00,
2013-05-14 02:22:00,40.8,31.8,30.09,SSE,158,0.0,0.0,70,0.00,,FEW120,0.00,VWS V14.01,2013-05-14 06:22:00,
2013-05-14 02:27:00,40.8,31.8,30.09,South,180,0.0,0.0,70,0.00,,FEW120,0.00,VWS V14.01,2013-05-14 06:27:00,
2013-05-14 02:32:00,40.6,31.6,30.09,South,180,3.9,3.9,70,0.00,,FEW120,0.00,VWS V14.01,2013-05-14 06:32:00,
2013-05-14 02:37:00,40.6,31.6,30.09,South,180,3.9,3.9,70,0.00,,FEW120,0.00,VWS V14.01,2013-05-14 06:37:00,
2013-05-14 02:42:00,40.6,31.8,30.09,South,180,3.9,3.9,70,0.00,,FEW120,0.00,VWS V14.01,2013-05-14 06:42:00,
2013-05-14 02:47:00,40.6,32.0,30.09,South,180,3.9,3.9,71,0.00,,FEW120,0.00,VWS V14.01,2013-05-14 06:47:00,
2013-05-14 02:52:00,40.6,31.8,30.09,South,180,3.9,3.9,70,0.00,,FEW120,0.00,VWS V14.01,2013-05-14 06:52:00,
2013-05-14 02:57:00,40.6,32.0,30.09,South,180,3.9,3.9,71,0.00,,FEW120,0.00,VWS V14.01,2013-05-14 06:57:00,
2013-05-14 03:02:00,40.6,32.0,30.09,South,180,3.9,3.9,71,0.00,,SCT110,0.00,VWS V14.01,2013-05-14 07:02:00,
2013-05-14 03:07:00,40.6,32.2,30.09,South,180,3.9,3.9,72,0.00,,SCT110,0.00,VWS V14.01,2013-05-14 07:07:00,
2013-05-14 03:12:00,40.8,32.3,30.09,South,180,3.9,3.9,72,0.00,,SCT110,0.00,VWS V14.01,2013-05-14 07:12:00,
2013-05-14 03:17:00,41.0,32.3,30.09,South,180,3.9,3.9,71,0.00,,SCT110,0.00,VWS V14.01,2013-05-14 07:17:00,
2013-05-14 03:22:00,41.2,32.5,30.09,South,180,3.9,3.9,71,0.00,,SCT110,0.00,VWS V14.01,2013-05-14 07:22:00,
2013-05-14 03:27:00,41.4,32.7,30.09,South,180,3.9,3.9,71,0.00,,SCT110,0.00,VWS V14.01,2013-05-14 07:27:00,
2013-05-14 03:32:00,41.5,32.8,30.09,South,180,3.9,3.9,71,0.00,,SCT110,0.00,VWS V14.01,2013-05-14 07:32:00,
2013-05-14 03:37:00,41.7,33.0,30.09,South,180,3.9,3.9,71,0.00,,SCT110,0.00,VWS V14.01,2013-05-14 07:37:00,
2013-05-14 03:42:00,41.7,32.8,30.09,South,180,3.9,3.9,70,0.00,,SCT110,0.00,VWS V14.01,2013-05-14 07:42:00,
2013-05-14 03:47:00,41.9,33.2,30.09,South,180,3.9,3.9,71,0.00,,SCT110,0.00,VWS V14.01,2013-05-14 07:47:00,
2013-05-14 03:52:00,42.1,33.4,30.09,South,180,3.9,3.9,71,0.00,,SCT110,0.00,VWS V14.01,2013-05-14 07:52:00,
2013-05-14 03:57:00,42.1,33.4,30.09,South,180,3.9,3.9,71,0.00,,SCT110,0.00,VWS V14.01,2013-05-14 07:57:00,
2013-05-14 04:02:00,42.1,33.4,30.09,South,180,3.9,3.9,71,0.00,,OVC110,0.00,VWS V14.01,2013-05-14 08:02:00,
2013-05-14 04:07:00,42.3,33.5,30.06,South,180,3.9,3.9,71,0.00,,OVC110,0.00,VWS V14.01,2013-05-14 08:07:00,
2013-05-14 04:12:00,42.3,33.5,30.06,South,180,3.9,3.9,71,0.00,,OVC110,0.00,VWS V14.01,2013-05-14 08:12:00,
2013-05-14 04:17:00,42.4,33.7,30.06,South,180,3.9,3.9,71,0.00,,OVC110,0.00,VWS V14.01,2013-05-14 08:17:00,
2013-05-14 04:22:00,42.4,33.7,30.09,South,180,3.9,3.9,71,0.00,,OVC110,0.00,VWS V14.01,2013-05-14 08:22:00,
2013-05-14 04:27:00,42.6,33.9,30.09,South,180,3.9,3.9,71,0.00,,OVC110,0.00,VWS V14.01,2013-05-14 08:27:00,
2013-05-14 04:32:00,43.0,34.1,30.09,South,180,6.2,6.2,70,0.00,,OVC110,0.00,VWS V14.01,2013-05-14 08:32:00,
2013-05-14 04:37:00,43.2,34.0,30.06,South,180,6.2,6.2,70,0.00,,OVC110,0.00,VWS V14.01,2013-05-14 08:37:00,
2013-05-14 04:42:00,43.3,34.2,30.06,South,180,0.0,5.3,70,0.00,,OVC110,0.00,VWS V14.01,2013-05-14 08:42:00,
2013-05-14 04:47:00,43.3,34.2,30.06,South,180,0.0,0.0,70,0.00,,OVC110,0.00,VWS V14.01,2013-05-14 08:47:00,
2013-05-14 04:52:00,43.5,34.4,30.09,South,180,0.0,0.0,70,0.00,,OVC110,0.00,VWS V14.01,2013-05-14 08:52:00,
2013-05-14 04:57:00,43.5,34.4,30.09,South,180,0.0,0.0,70,0.00,,OVC110,0.00,VWS V14.01,2013-05-14 08:57:00,
2013-05-14 05:02:00,43.5,34.4,30.09,South,180,0.0,0.0,70,0.00,,-RA,0.00,VWS V14.01,2013-05-14 09:02:00,
2013-05-14 05:07:00,43.7,34.4,30.09,South,180,0.0,0.0,70,0.00,,-RA,0.00,VWS V14.01,2013-05-14 09:07:00,
2013-05-14 05:12:00,43.7,34.4,30.09,South,180,0.0,0.0,70,0.00,,-RA,0.00,VWS V14.01,2013-05-14 09:12:00,
2013-05-14 05:17:00,43.9,34.6,30.09,South,180,0.0,0.0,70,0.00,,-RA,0.00,VWS V14.01,2013-05-14 09:17:00,
2013-05-14 05:22:00,43.9,34.6,30.09,South,180,0.0,0.0,70,0.00,,-RA,0.00,VWS V14.01,2013-05-14 09:22:00,
2013-05-14 05:27:00,44.1,34.7,30.09,South,180,0.0,0.0,70,0.00,,-RA,0.00,VWS V14.01,2013-05-14 09:27:00,
2013-05-14 05:32:00,44.1,34.7,30.09,South,180,0.0,0.0,70,0.00,,-RA,0.00,VWS V14.01,2013-05-14 09:32:00,
2013-05-14 05:37:00,43.9,34.6,30.09,South,180,0.0,0.0,70,0.00,,-RA,0.00,VWS V14.01,2013-05-14 09:37:00,
2013-05-14 05:42:00,44.1,34.7,30.09,South,180,0.0,0.0,70,0.00,,-RA,0.00,VWS V14.01,2013-05-14 09:42:00,
2013-05-14 05:47:00,44.1,34.7,30.09,South,180,0.0,0.0,70,0.00,,-RA,0.00,VWS V14.01,2013-05-14 09:47:00,
2013-05-14 05:52:00,44.1,34.7,30.09,South,180,0.0,0.0,70,0.00,,-RA,0.00,VWS V14.01,2013-05-14 09:52:00,
2013-05-14 05:57:00,44.1,34.7,30.09,South,180,0.0,0.0,70,0.00,,OVC090,0.00,VWS V14.01,2013-05-14 09:57:00,
2013-05-14 06:02:00,44.1,34.7,30.09,South,180,0.0,0.0,70,0.00,,OVC090,0.00,VWS V14.01,2013-05-14 10:02:00,
2013-05-14 06:07:00,44.1,34.7,30.06,South,180,0.0,0.0,70,0.00,,OVC090,0.00,VWS V14.01,2013-05-14 10:07:00,
2013-05-14 06:12:00,44.1,34.7,30.06,South,180,0.0,0.0,70,0.00,,OVC090,0.00,VWS V14.01,2013-05-14 10:12:00,
2013-05-14 06:17:00,43.9,34.6,30.06,South,180,0.0,0.0,70,0.00,,OVC090,0.00,VWS V14.01,2013-05-14 10:17:00,
2013-05-14 06:22:00,43.9,34.6,30.06,South,180,0.0,0.0,70,0.00,,OVC090,0.00,VWS V14.01,2013-05-14 10:22:00,
2013-05-14 06:27:00,43.7,34.4,30.06,South,180,0.0,0.0,70,0.00,,OVC090,0.00,VWS V14.01,2013-05-14 10:27:00,
2013-05-14 06:32:00,43.7,34.4,30.06,South,180,0.0,0.0,70,0.00,,OVC090,0.00,VWS V14.01,2013-05-14 10:32:00,
2013-05-14 06:37:00,43.7,34.6,30.06,South,180,0.0,0.0,70,0.00,,OVC090,0.00,VWS V14.01,2013-05-14 10:37:00,
2013-05-14 06:42:00,43.5,34.4,30.06,South,180,0.0,0.0,70,0.00,,OVC090,0.00,VWS V14.01,2013-05-14 10:42:00,
2013-05-14 06:47:00,43.5,34.4,30.06,South,180,0.0,0.0,70,0.00,,OVC090,0.00,VWS V14.01,2013-05-14 10:47:00,
2013-05-14 06:52:00,43.3,34.4,30.06,South,180,0.0,0.0,70,0.00,,OVC090,0.00,VWS V14.01,2013-05-14 10:52:00,
2013-05-14 06:57:00,43.2,34.2,30.06,South,180,0.0,0.0,70,0.00,,OVC090,0.00,VWS V14.01,2013-05-14 10:57:00,
2013-05-14 07:02:00,43.2,34.6,30.06,West,270,5.0,5.0,72,0.00,,OVC090,0.00,VWS V14.01,2013-05-14 11:02:00,
2013-05-14 07:07:00,43.0,34.2,30.06,SSE,158,5.6,6.3,71,0.00,,OVC090,0.00,VWS V14.01,2013-05-14 11:07:00,
2013-05-14 07:12:00,43.0,34.2,30.06,South,180,3.4,4.8,71,0.00,,OVC090,0.00,VWS V14.01,2013-05-14 11:12:00,
2013-05-14 07:17:00,43.0,34.4,30.06,South,180,5.0,5.8,72,0.00,,OVC090,0.00,VWS V14.01,2013-05-14 11:17:00,
2013-05-14 07:22:00,42.8,34.4,30.06,South,180,8.4,8.4,72,0.00,,OVC090,0.00,VWS V14.01,2013-05-14 11:22:00,
2013-05-14 07:27:00,42.8,34.6,30.06,South,180,6.2,6.2,72,0.00,,OVC090,0.00,VWS V14.01,2013-05-14 11:27:00,
2013-05-14 07:32:00,42.8,34.6,30.06,SSE,158,6.2,6.2,72,0.00,,OVC090,0.00,VWS V14.01,2013-05-14 11:32:00,
2013-05-14 07:37:00,42.8,34.4,30.03,SSE,158,3.9,3.9,72,0.00,,OVC090,0.00,VWS V14.01,2013-05-14 11:37:00,
2013-05-14 07:42:00,42.8,34.4,30.03,SSE,158,5.0,5.0,72,0.00,,OVC090,0.00,VWS V14.01,2013-05-14 11:42:00,
2013-05-14 07:47:00,42.8,34.6,30.03,South,180,8.4,8.4,72,0.00,,OVC090,0.00,VWS V14.01,2013-05-14 11:47:00,
2013-05-14 07:53:00,43.0,34.6,30.03,SSE,158,6.2,6.2,72,0.00,,OVC090,0.00,VWS V14.01,2013-05-14 11:53:00,
2013-05-14 07:57:00,43.3,35.1,30.03,SSE,158,6.2,6.2,72,0.00,,OVC090,0.00,VWS V14.01,2013-05-14 11:57:00,
2013-05-14 08:03:00,43.5,35.1,30.03,SSE,158,6.2,6.2,72,0.00,,OVC090,0.00,VWS V14.01,2013-05-14 12:03:00,
2013-05-14 08:08:00,43.7,35.1,30.03,SSE,158,6.2,6.2,72,0.00,,OVC090,0.00,VWS V14.01,2013-05-14 12:08:00,
2013-05-14 08:13:00,44.1,35.5,30.03,SSE,158,6.2,6.2,72,0.00,,OVC090,0.00,VWS V14.01,2013-05-14 12:13:00,
2013-05-14 08:18:00,44.2,35.5,30.03,SSE,158,6.2,6.2,71,0.00,,OVC090,0.00,VWS V14.01,2013-05-14 12:18:00,
2013-05-14 08:23:00,44.4,35.8,30.06,SSE,158,6.2,6.2,72,0.00,,OVC090,0.00,VWS V14.01,2013-05-14 12:23:00,
2013-05-14 08:28:00,44.6,36.2,30.06,SSE,158,6.2,6.2,72,0.00,,OVC090,0.00,VWS V14.01,2013-05-14 12:28:00,
2013-05-14 08:33:00,44.8,36.7,30.06,South,180,3.9,3.9,73,0.00,,OVC090,0.00,VWS V14.01,2013-05-14 12:33:00,
2013-05-14 08:38:00,45.0,37.0,30.03,South,180,0.0,0.0,74,0.00,,OVC090,0.00,VWS V14.01,2013-05-14 12:38:00,
2013-05-14 08:43:00,45.1,37.2,30.03,South,180,0.0,0.0,74,0.00,,OVC090,0.00,VWS V14.01,2013-05-14 12:43:00,
2013-05-14 08:48:00,45.3,37.5,30.03,SSE,158,0.0,0.0,74,0.00,,OVC090,0.00,VWS V14.01,2013-05-14 12:48:00,
2013-05-14 08:53:00,45.5,37.7,30.03,SSE,158,0.0,0.0,74,0.00,,OVC090,0.00,VWS V14.01,2013-05-14 12:53:00,
2013-05-14 08:58:00,45.7,37.9,30.03,SSE,158,0.0,0.0,74,0.00,,OVC100,0.00,VWS V14.01,2013-05-14 12:58:00,
2013-05-14 09:03:00,45.9,38.2,30.03,SSE,158,0.0,0.0,74,0.00,,OVC100,0.00,VWS V14.01,2013-05-14 13:03:00,
2013-05-14 09:08:00,45.9,38.2,30.00,SSE,158,0.0,0.0,74,0.00,,OVC100,0.00,VWS V14.01,2013-05-14 13:08:00,
2013-05-14 09:13:00,46.2,38.8,30.00,SSE,158,0.0,0.0,75,0.00,,OVC100,0.00,VWS V14.01,2013-05-14 13:13:00,
2013-05-14 09:18:00,46.4,38.8,30.00,SSE,158,0.0,0.0,74,0.00,,OVC100,0.00,VWS V14.01,2013-05-14 13:18:00,
2013-05-14 09:23:00,46.6,38.9,30.00,SSE,158,3.4,3.4,74,0.00,,OVC100,0.00,VWS V14.01,2013-05-14 13:23:00,
2013-05-14 09:28:00,46.9,39.3,30.00,SSE,158,3.4,3.4,74,0.00,,OVC100,0.00,VWS V14.01,2013-05-14 13:28:00,
2013-05-14 09:33:00,47.1,39.3,30.00,SSE,158,3.4,3.4,74,0.00,,OVC100,0.00,VWS V14.01,2013-05-14 13:33:00,
2013-05-14 09:38:00,47.3,39.5,30.03,SSE,158,3.4,3.4,74,0.00,,OVC100,0.00,VWS V14.01,2013-05-14 13:38:00,
2013-05-14 09:43:00,47.7,39.8,30.03,SSE,158,3.4,3.4,74,0.00,,OVC100,0.00,VWS V14.01,2013-05-14 13:43:00,
2013-05-14 09:48:00,47.7,39.8,30.03,SSE,158,3.4,3.4,74,0.00,,OVC100,0.00,VWS V14.01,2013-05-14 13:48:00,
2013-05-14 09:53:00,48.2,40.1,30.03,SSE,158,3.4,3.4,74,0.00,,OVC100,0.00,VWS V14.01,2013-05-14 13:53:00,
2013-05-14 09:58:00,48.7,40.7,30.03,SSE,158,3.4,3.4,74,0.00,,OVC100,0.00,VWS V14.01,2013-05-14 13:58:00,
2013-05-14 10:03:00,48.9,40.5,30.03,SSE,158,3.4,3.4,72,0.00,,OVC090,0.00,VWS V14.01,2013-05-14 14:03:00,
2013-05-14 10:08:00,49.1,40.5,30.00,SSE,158,0.0,0.0,72,0.00,,OVC090,0.00,VWS V14.01,2013-05-14 14:08:00,
2013-05-14 10:13:00,49.1,40.1,30.00,SSE,158,3.9,3.9,71,0.00,,OVC090,0.00,VWS V14.01,2013-05-14 14:13:00,
2013-05-14 10:18:00,49.3,40.3,30.00,SSE,158,8.4,8.4,71,0.00,,OVC090,0.00,VWS V14.01,2013-05-14 14:18:00,
2013-05-14 10:23:00,49.5,40.3,29.97,SSE,158,8.4,8.4,70,0.00,,OVC090,0.00,VWS V14.01,2013-05-14 14:23:00,
2013-05-14 10:28:00,49.8,40.6,29.97,SSE,158,8.4,8.4,70,0.00,,OVC090,0.00,VWS V14.01,2013-05-14 14:28:00,
2013-05-14 10:33:00,49.8,40.6,29.97,SSE,158,8.4,8.4,70,0.00,,OVC090,0.00,VWS V14.01,2013-05-14 14:33:00,
2013-05-14 10:38:00,50.2,40.8,29.97,SSE,158,2.2,2.2,70,0.00,,OVC090,0.00,VWS V14.01,2013-05-14 14:38:00,
2013-05-14 10:43:00,50.4,40.8,29.97,SSE,158,7.3,7.3,70,0.00,,OVC090,0.00,VWS V14.01,2013-05-14 14:43:00,
2013-05-14 10:48:00,50.7,41.3,29.97,ESE,112,0.0,6.3,70,0.00,,OVC090,0.00,VWS V14.01,2013-05-14 14:48:00,
2013-05-14 10:53:00,51.1,41.5,29.94,SE,135,8.4,8.4,70,0.00,,OVC090,0.00,VWS V14.01,2013-05-14 14:53:00,
2013-05-14 10:58:00,51.3,41.5,29.94,SSE,158,3.9,6.3,69,0.00,,OVC090,0.00,VWS V14.01,2013-05-14 14:58:00,
2013-05-14 11:03:00,51.3,41.5,29.94,South,180,7.8,7.8,69,0.00,,OVC065,0.00,VWS V14.01,2013-05-14 15:03:00,
2013-05-14 11:08:00,51.6,41.8,29.97,SSE,158,9.0,10.6,69,0.00,,OVC065,0.00,VWS V14.01,2013-05-14 15:08:00,
2013-05-14 11:13:00,52.2,42.1,29.97,SSE,158,7.8,7.8,68,0.00,,OVC065,0.00,VWS V14.01,2013-05-14 15:13:00,
2013-05-14 11:18:00,52.5,42.5,29.97,SSE,158,7.8,7.8,68,0.00,,OVC065,0.00,VWS V14.01,2013-05-14 15:18:00,
2013-05-14 11:23:00,52.7,42.6,29.97,SSE,158,7.8,7.8,68,0.00,,OVC065,0.00,VWS V14.01,2013-05-14 15:23:00,
2013-05-14 11:28:00,53.1,43.0,29.97,SSE,158,7.8,7.8,68,0.00,,OVC065,0.00,VWS V14.01,2013-05-14 15:28:00,
2013-05-14 11:33:00,53.4,43.3,29.97,SSE,158,7.8,7.8,68,0.00,,OVC065,0.00,VWS V14.01,2013-05-14 15:33:00,
2013-05-14 11:38:00,53.8,43.5,29.97,SSE,158,7.8,7.8,68,0.00,,OVC065,0.00,VWS V14.01,2013-05-14 15:38:00,
2013-05-14 11:43:00,54.1,43.8,29.97,SSE,158,7.8,7.8,68,0.00,,OVC065,0.00,VWS V14.01,2013-05-14 15:43:00,
2013-05-14 11:48:00,54.5,44.2,29.97,SSE,158,7.8,7.8,68,0.00,,OVC065,0.00,VWS V14.01,2013-05-14 15:48:00,
2013-05-14 11:53:00,54.5,44.2,29.94,SSE,158,7.8,7.8,68,0.00,,OVC065,0.00,VWS V14.01,2013-05-14 15:53:00,
2013-05-14 11:58:00,54.9,44.5,29.94,SSE,158,7.8,7.8,68,0.00,,OVC065,0.00,VWS V14.01,2013-05-14 15:58:00,
2013-05-14 12:03:00,54.9,44.5,29.94,SSE,158,3.9,3.9,68,0.00,,OVC070,0.00,VWS V14.01,2013-05-14 16:03:00,
2013-05-14 12:08:00,55.2,44.9,29.94,SE,135,5.0,5.0,68,0.00,,OVC070,0.00,VWS V14.01,2013-05-14 16:08:00,
2013-05-14 12:13:00,55.4,44.8,29.94,SE,135,6.7,6.7,68,0.00,,OVC070,0.00,VWS V14.01,2013-05-14 16:13:00,
2013-05-14 12:18:00,55.6,45.0,29.94,SE,135,7.3,7.3,68,0.00,,OVC070,0.00,VWS V14.01,2013-05-14 16:18:00,
2013-05-14 12:23:00,55.6,45.0,29.94,SE,135,10.6,10.6,68,0.00,,OVC070,0.00,VWS V14.01,2013-05-14 16:23:00,
2013-05-14 12:28:00,55.6,45.0,29.94,SSE,158,7.8,7.8,68,0.00,,OVC070,0.00,VWS V14.01,2013-05-14 16:28:00,
2013-05-14 12:33:00,55.6,45.0,29.94,SSE,158,5.0,5.0,68,0.00,,OVC070,0.00,VWS V14.01,2013-05-14 16:33:00,
2013-05-14 12:38:00,55.4,44.8,29.94,SE,135,3.9,3.9,68,0.00,,OVC070,0.00,VWS V14.01,2013-05-14 16:38:00,
2013-05-14 12:43:00,55.4,44.8,29.94,SSE,158,7.8,7.8,68,0.00,,OVC070,0.00,VWS V14.01,2013-05-14 16:43:00,
2013-05-14 12:48:00,55.4,44.8,29.94,SSE,158,6.7,6.7,68,0.00,,OVC070,0.00,VWS V14.01,2013-05-14 16:48:00,
2013-05-14 12:53:00,55.4,44.8,29.94,SSE,158,3.4,3.4,68,0.00,,OVC070,0.00,VWS V14.01,2013-05-14 16:53:00,
2013-05-14 12:58:00,55.6,45.0,29.94,SE,135,5.0,5.0,68,0.00,,OVC075,0.00,VWS V14.01,2013-05-14 16:58:00,
2013-05-14 13:03:00,55.6,45.0,29.94,SSE,158,7.8,7.8,68,0.00,,OVC075,0.00,VWS V14.01,2013-05-14 17:03:00,
2013-05-14 13:08:00,55.8,45.2,29.94,SSE,158,3.9,3.9,68,0.00,,OVC075,0.00,VWS V14.01,2013-05-14 17:08:00,
2013-05-14 13:13:00,55.9,45.5,29.94,SSE,158,0.0,0.0,68,0.00,,OVC075,0.00,VWS V14.01,2013-05-14 17:13:00,
2013-05-14 13:18:00,56.1,45.7,29.94,South,180,5.0,5.0,68,0.00,,OVC075,0.00,VWS V14.01,2013-05-14 17:18:00,
2013-05-14 13:23:00,56.5,45.9,29.94,SSE,158,9.5,9.5,68,0.00,,OVC075,0.00,VWS V14.01,2013-05-14 17:23:00,
2013-05-14 13:28:00,56.7,46.0,29.94,SSE,158,10.1,10.1,68,0.00,,OVC075,0.00,VWS V14.01,2013-05-14 17:28:00,
2013-05-14 13:33:00,56.8,45.6,29.94,SSE,158,10.1,10.1,66,0.00,,OVC075,0.00,VWS V14.01,2013-05-14 17:33:00,
2013-05-14 13:38:00,57.4,46.1,29.91,SSE,158,10.1,10.1,66,0.00,,OVC075,0.00,VWS V14.01,2013-05-14 17:38:00,
2013-05-14 13:43:00,57.9,46.6,29.91,SE,135,8.4,8.4,66,0.00,,OVC075,0.00,VWS V14.01,2013-05-14 17:43:00,
2013-05-14 13:48:00,58.1,46.8,29.91,South,180,20.1,20.1,66,0.00,,OVC075,0.00,VWS V14.01,2013-05-14 17:48:00,
2013-05-14 13:53:00,58.5,46.5,29.88,South,180,20.1,20.1,64,0.00,,OVC075,0.00,VWS V14.01,2013-05-14 17:53:00,
2013-05-14 13:58:00,58.6,47.3,29.88,SSE,158,16.2,16.2,66,0.00,,BKN220,0.00,VWS V14.01,2013-05-14 17:58:00,
2013-05-14 14:03:00,59.4,48.0,29.88,SSE,158,13.4,13.4,66,0.00,,BKN220,0.00,VWS V14.01,2013-05-14 18:03:00,
2013-05-14 14:09:00,59.7,47.7,29.91,SSE,158,15.1,15.1,64,0.00,,BKN220,0.00,VWS V14.01,2013-05-14 18:09:00,
2013-05-14 14:14:00,59.9,47.9,29.91,South,180,6.7,6.7,64,0.00,,BKN220,0.00,VWS V14.01,2013-05-14 18:14:00,
2013-05-14 14:19:00,60.4,48.4,29.91,South,180,7.3,10.1,64,0.00,,BKN220,0.00,VWS V14.01,2013-05-14 18:19:00,
2013-05-14 14:24:00,61.2,49.1,29.91,South,180,19.0,19.0,64,0.00,,BKN220,0.00,VWS V14.01,2013-05-14 18:24:00,
2013-05-14 14:29:00,61.3,49.3,29.91,SSE,158,7.3,7.7,64,0.00,,BKN220,0.00,VWS V14.01,2013-05-14 18:29:00,
2013-05-14 14:34:00,62.2,50.1,29.91,SSE,158,9.5,9.5,64,0.00,,BKN220,0.00,VWS V14.01,2013-05-14 18:34:00,
2013-05-14 14:39:00,62.1,50.0,29.91,SSE,158,9.5,9.5,64,0.00,,BKN220,0.00,VWS V14.01,2013-05-14 18:39:00,
2013-05-14 14:44:00,62.1,50.0,29.91,SSE,158,0.0,10.6,64,0.00,,BKN220,0.00,VWS V14.01,2013-05-14 18:44:00,
2013-05-14 14:49:00,62.2,50.5,29.91,South,180,3.9,5.8,66,0.00,,BKN220,0.00,VWS V14.01,2013-05-14 18:49:00,
2013-05-14 14:54:00,62.8,51.1,29.91,SSE,158,10.6,13.5,66,0.00,,BKN220,0.00,VWS V14.01,2013-05-14 18:54:00,
2013-05-14 14:59:00,63.1,50.8,29.91,SE,135,5.0,5.0,64,0.00,,BKN220,0.00,VWS V14.01,2013-05-14 18:59:00,
2013-05-14 15:04:00,63.3,51.0,29.91,ESE,112,3.9,3.9,64,0.00,,BKN220,0.00,VWS V14.01,2013-05-14 19:04:00,
2013-05-14 15:09:00,64.2,52.4,29.88,ESE,112,3.9,3.9,66,0.00,,BKN220,0.00,VWS V14.01,2013-05-14 19:09:00,
2013-05-14 15:14:00,63.9,51.5,29.88,ESE,112,3.9,3.9,64,0.00,,BKN220,0.00,VWS V14.01,2013-05-14 19:14:00,
2013-05-14 15:19:00,64.2,51.8,29.88,ESE,112,3.9,3.9,64,0.00,,BKN220,0.00,VWS V14.01,2013-05-14 19:19:00,
2013-05-14 15:24:00,64.2,51.8,29.88,ESE,112,3.9,3.9,64,0.00,,BKN220,0.00,VWS V14.01,2013-05-14 19:24:00,
2013-05-14 15:29:00,64.0,51.6,29.88,ESE,112,3.9,3.9,64,0.00,,BKN220,0.00,VWS V14.01,2013-05-14 19:29:00,
2013-05-14 15:34:00,63.7,51.3,29.88,ESE,112,3.9,3.9,64,0.00,,BKN220,0.00,VWS V14.01,2013-05-14 19:34:00,
2013-05-14 15:39:00,63.1,50.8,29.88,ESE,112,3.9,3.9,64,0.00,,BKN220,0.00,VWS V14.01,2013-05-14 19:39:00,
2013-05-14 15:44:00,63.5,51.8,29.88,South,180,5.6,5.6,66,0.00,,BKN220,0.00,VWS V14.01,2013-05-14 19:44:00,
2013-05-14 15:49:00,63.0,50.6,29.88,South,180,5.6,5.6,64,0.00,,BKN220,0.00,VWS V14.01,2013-05-14 19:49:00,
2013-05-14 15:54:00,62.1,50.0,29.88,South,180,2.8,6.7,64,0.00,,BKN220,0.00,VWS V14.01,2013-05-14 19:54:00,
2013-05-14 15:59:00,62.6,50.3,29.88,SE,135,7.8,7.8,64,0.00,,BKN220,0.00,VWS V14.01,2013-05-14 19:59:00,
2013-05-14 16:04:00,62.6,50.3,29.88,SSE,158,5.6,8.7,64,0.00,,BKN200,0.00,VWS V14.01,2013-05-14 20:04:00,
2013-05-14 16:09:00,62.4,50.3,29.88,ESE,112,9.5,9.5,64,0.00,,BKN200,0.00,VWS V14.01,2013-05-14 20:09:00,
2013-05-14 16:14:00,62.1,50.0,29.88,SE,135,3.4,8.2,64,0.00,,BKN200,0.00,VWS V14.01,2013-05-14 20:14:00,
2013-05-14 16:19:00,61.9,49.8,29.88,East,90,6.2,6.2,64,0.00,,BKN200,0.00,VWS V14.01,2013-05-14 20:19:00,
2013-05-14 16:24:00,61.9,49.8,29.88,East,90,6.2,6.2,64,0.00,,BKN200,0.00,VWS V14.01,2013-05-14 20:24:00,
2013-05-14 16:29:00,61.9,49.8,29.88,East,90,6.2,6.2,64,0.00,,BKN200,0.00,VWS V14.01,2013-05-14 20:29:00,
2013-05-14 16:34:00,61.3,49.3,29.88,East,90,6.2,6.2,64,0.00,,BKN200,0.00,VWS V14.01,2013-05-14 20:34:00,
2013-05-14 16:39:00,60.8,48.8,29.85,SE,135,5.0,5.0,64,0.00,,BKN200,0.00,VWS V14.01,2013-05-14 20:39:00,
2013-05-14 16:44:00,60.8,48.8,29.85,SE,135,5.0,5.0,64,0.00,,BKN200,0.00,VWS V14.01,2013-05-14 20:44:00,
2013-05-14 16:49:00,60.4,48.4,29.85,SE,135,7.3,7.3,64,0.00,,BKN200,0.00,VWS V14.01,2013-05-14 20:49:00,
2013-05-14 16:54:00,59.9,47.9,29.85,SE,135,7.3,7.3,64,0.00,,BKN200,0.00,VWS V14.01,2013-05-14 20:54:00,
2013-05-14 16:59:00,59.7,47.7,29.85,SE,135,7.3,7.3,64,0.00,,BKN200,0.00,VWS V14.01,2013-05-14 20:59:00,
2013-05-14 17:04:00,59.7,47.7,29.85,SE,135,8.4,8.4,64,0.00,,BKN240,0.00,VWS V14.01,2013-05-14 21:04:00,
2013-05-14 17:09:00,59.9,47.9,29.85,ESE,112,9.5,9.5,64,0.00,,BKN240,0.00,VWS V14.01,2013-05-14 21:09:00,
2013-05-14 17:14:00,60.3,48.3,29.85,South,180,10.1,10.1,64,0.00,,BKN240,0.00,VWS V14.01,2013-05-14 21:14:00,
2013-05-14 17:19:00,59.9,47.9,29.85,South,180,10.1,10.1,64,0.00,,BKN240,0.00,VWS V14.01,2013-05-14 21:19:00,
2013-05-14 17:24:00,59.9,47.9,29.85,SE,135,11.7,11.7,64,0.00,,BKN240,0.00,VWS V14.01,2013-05-14 21:24:00,
2013-05-14 17:29:00,60.1,48.1,29.85,SE,135,2.8,6.3,64,0.00,,BKN240,0.00,VWS V14.01,2013-05-14 21:29:00,
2013-05-14 17:34:00,60.4,48.4,29.85,ESE,112,3.9,3.9,64,0.00,,BKN240,0.00,VWS V14.01,2013-05-14 21:34:00,
2013-05-14 17:39:00,60.4,48.4,29.85,SSE,158,13.4,13.4,64,0.00,,BKN240,0.00,VWS V14.01,2013-05-14 21:39:00,
2013-05-14 17:44:00,60.4,48.4,29.85,South,180,6.7,6.7,64,0.00,,BKN240,0.00,VWS V14.01,2013-05-14 21:44:00,
2013-05-14 17:49:00,60.4,48.4,29.85,South,180,6.7,6.7,64,0.00,,BKN240,0.00,VWS V14.01,2013-05-14 21:49:00,
2013-05-14 17:54:00,60.4,48.4,29.82,South,180,8.4,8.4,64,0.00,,BKN240,0.00,VWS V14.01,2013-05-14 21:54:00,
2013-05-14 17:59:00,60.4,48.4,29.82,South,180,13.4,13.4,64,0.00,,BKN240,0.00,VWS V14.01,2013-05-14 21:59:00,
2013-05-14 18:04:00,60.3,48.3,29.82,SSE,158,2.8,3.4,64,0.00,,BKN230,0.00,VWS V14.01,2013-05-14 22:04:00,
2013-05-14 18:09:00,60.3,48.3,29.85,SSE,158,7.3,7.3,64,0.00,,BKN230,0.00,VWS V14.01,2013-05-14 22:09:00,
2013-05-14 18:14:00,60.3,48.3,29.85,SSE,158,7.8,7.8,64,0.00,,BKN230,0.00,VWS V14.01,2013-05-14 22:14:00,
2013-05-14 18:19:00,60.4,48.4,29.85,SSE,158,3.9,3.9,64,0.00,,BKN230,0.00,VWS V14.01,2013-05-14 22:19:00,
2013-05-14 18:24:00,60.3,48.3,29.85,SSE,158,6.2,6.2,64,0.00,,BKN230,0.00,VWS V14.01,2013-05-14 22:24:00,
2013-05-14 18:29:00,59.7,47.7,29.85,South,180,7.8,7.8,64,0.00,,BKN230,0.00,VWS V14.01,2013-05-14 22:29:00,
2013-05-14 18:34:00,59.7,47.7,29.85,South,180,0.0,0.0,64,0.00,,BKN230,0.00,VWS V14.01,2013-05-14 22:34:00,
2013-05-14 18:39:00,59.7,47.7,29.85,SE,135,2.8,5.8,64,0.00,,BKN230,0.00,VWS V14.01,2013-05-14 22:39:00,
2013-05-14 18:44:00,59.7,47.7,29.85,SE,135,6.2,6.2,64,0.00,,BKN230,0.00,VWS V14.01,2013-05-14 22:44:00,
2013-05-14 18:49:00,59.7,47.7,29.85,SSE,158,3.4,3.4,64,0.00,,BKN230,0.00,VWS V14.01,2013-05-14 22:49:00,
2013-05-14 18:54:00,59.7,47.7,29.85,SE,135,3.9,3.9,64,0.00,,BKN230,0.00,VWS V14.01,2013-05-14 22:54:00,
2013-05-14 18:59:00,59.5,47.6,29.85,SSE,158,3.4,3.4,64,0.00,,BKN230,0.00,VWS V14.01,2013-05-14 22:59:00,
2013-05-14 19:04:00,59.4,48.0,29.85,South,180,0.0,0.0,66,0.00,,BKN230,0.00,VWS V14.01,2013-05-14 23:04:00,
2013-05-14 19:09:00,58.8,46.9,29.85,East,90,5.6,5.6,64,0.00,,BKN230,0.00,VWS V14.01,2013-05-14 23:09:00,
2013-05-14 19:14:00,58.6,47.3,29.85,ESE,112,0.0,0.0,66,0.00,,BKN230,0.00,VWS V14.01,2013-05-14 23:14:00,
2013-05-14 19:19:00,58.5,47.2,29.85,ESE,112,0.0,0.0,66,0.00,,BKN230,0.00,VWS V14.01,2013-05-14 23:19:00,
2013-05-14 19:24:00,58.6,47.3,29.85,SSE,158,0.0,0.0,66,0.00,,BKN230,0.00,VWS V14.01,2013-05-14 23:24:00,
2013-05-14 19:29:00,58.5,47.2,29.85,South,180,5.0,6.3,66,0.00,,BKN230,0.00,VWS V14.01,2013-05-14 23:29:00,
2013-05-14 19:34:00,58.3,47.0,29.85,SE,135,5.0,5.0,66,0.00,,BKN230,0.00,VWS V14.01,2013-05-14 23:34:00,
2013-05-14 19:39:00,58.1,46.8,29.85,SE,135,7.8,7.8,66,0.00,,BKN230,0.00,VWS V14.01,2013-05-14 23:39:00,
2013-05-14 19:44:00,57.9,46.6,29.85,SSE,158,7.3,7.3,66,0.00,,BKN230,0.00,VWS V14.01,2013-05-14 23:44:00,
2013-05-14 19:49:00,57.9,46.6,29.85,SE,135,5.6,5.6,66,0.00,,BKN230,0.00,VWS V14.01,2013-05-14 23:49:00,
2013-05-14 19:54:00,57.6,46.3,29.85,SE,135,0.0,2.9,66,0.00,,BKN230,0.00,VWS V14.01,2013-05-14 23:54:00,
2013-05-14 19:59:00,57.6,46.3,29.85,SE,135,0.0,4.3,66,0.00,,BKN230,0.00,VWS V14.01,2013-05-14 23:59:00,
2013-05-14 20:04:00,57.4,46.1,29.85,East,90,2.8,2.8,66,0.00,,BKN230,0.00,VWS V14.01,2013-05-15 00:04:00,
2013-05-14 20:09:00,57.2,46.0,29.82,SE,135,0.0,0.0,66,0.00,,BKN230,0.00,VWS V14.01,2013-05-15 00:09:00,
2013-05-14 20:14:00,57.2,46.0,29.82,SSE,158,5.0,5.0,66,0.00,,BKN230,0.00,VWS V14.01,2013-05-15 00:14:00,
2013-05-14 20:20:00,57.0,45.8,29.82,SSE,158,6.7,6.7,66,0.00,,BKN230,0.00,VWS V14.01,2013-05-15 00:20:00,
2013-05-14 20:25:00,57.0,45.8,29.85,SSE,158,5.0,5.0,66,0.00,,BKN230,0.00,VWS V14.01,2013-05-15 00:25:00,
2013-05-14 20:30:00,56.8,45.6,29.85,SSE,158,0.0,1.9,66,0.00,,BKN230,0.00,VWS V14.01,2013-05-15 00:30:00,
2013-05-14 20:35:00,56.7,45.4,29.85,South,180,3.4,4.3,66,0.00,,BKN230,0.00,VWS V14.01,2013-05-15 00:35:00,
2013-05-14 20:40:00,56.5,45.3,29.82,SE,135,3.4,4.3,66,0.00,,BKN230,0.00,VWS V14.01,2013-05-15 00:40:00,
2013-05-14 20:45:00,56.3,45.1,29.82,ESE,112,3.9,3.9,66,0.00,,BKN230,0.00,VWS V14.01,2013-05-15 00:45:00,
2013-05-14 20:50:00,56.1,44.9,29.82,ESE,112,0.0,0.0,66,0.00,,BKN230,0.00,VWS V14.01,2013-05-15 00:50:00,
2013-05-14 20:55:00,55.9,44.8,29.82,SSE,158,6.2,6.2,66,0.00,,BKN230,0.00,VWS V14.01,2013-05-15 00:55:00,
2013-05-14 21:00:00,55.8,44.6,29.82,SE,135,0.0,0.0,66,0.00,,BKN230,0.00,VWS V14.01,2013-05-15 01:00:00,
2013-05-14 21:05:00,55.4,44.2,29.82,SE,135,6.2,6.2,66,0.00,,BKN230,0.00,VWS V14.01,2013-05-15 01:05:00,
2013-05-14 21:10:00,55.2,44.7,29.82,South,180,2.8,6.3,68,0.00,,BKN230,0.00,VWS V14.01,2013-05-15 01:10:00,
2013-05-14 21:15:00,55.0,44.5,29.82,South,180,0.0,0.0,68,0.00,,BKN230,0.00,VWS V14.01,2013-05-15 01:15:00,
2013-05-14 21:20:00,54.7,44.2,29.82,SE,135,6.2,6.2,68,0.00,,BKN230,0.00,VWS V14.01,2013-05-15 01:20:00,
2013-05-14 21:25:00,54.5,44.0,29.82,ESE,112,0.0,4.8,68,0.00,,BKN230,0.00,VWS V14.01,2013-05-15 01:25:00,
2013-05-14 21:30:00,54.5,44.0,29.82,SE,135,2.8,2.8,68,0.00,,BKN230,0.00,VWS V14.01,2013-05-15 01:30:00,
2013-05-14 21:35:00,54.3,44.0,29.82,ESE,112,3.4,3.4,68,0.00,,BKN230,0.00,VWS V14.01,2013-05-15 01:35:00,
2013-05-14 21:40:00,54.0,43.7,29.82,SE,135,0.0,0.0,68,0.00,,BKN230,0.00,VWS V14.01,2013-05-15 01:40:00,
2013-05-14 21:45:00,53.8,43.5,29.82,SE,135,0.0,0.0,68,0.00,,BKN230,0.00,VWS V14.01,2013-05-15 01:45:00,
2013-05-14 21:50:00,53.6,43.3,29.82,SE,135,0.0,0.0,68,0.00,,BKN230,0.00,VWS V14.01,2013-05-15 01:50:00,
2013-05-14 21:55:00,53.4,43.1,29.79,SSE,158,7.3,7.3,68,0.00,,BKN230,0.00,VWS V14.01,2013-05-15 01:55:00,
2013-05-14 22:00:00,53.2,43.2,29.79,SSE,158,0.0,0.0,68,0.00,,BKN220,0.00,VWS V14.01,2013-05-15 02:00:00,
2013-05-14 22:05:00,53.4,43.3,29.79,SSE,158,0.0,0.0,68,0.00,,BKN220,0.00,VWS V14.01,2013-05-15 02:05:00,
2013-05-14 22:10:00,53.2,43.2,29.79,SE,135,0.0,0.0,68,0.00,,BKN220,0.00,VWS V14.01,2013-05-15 02:10:00,
2013-05-14 22:15:00,53.1,43.0,29.79,ESE,112,6.2,6.2,68,0.00,,BKN220,0.00,VWS V14.01,2013-05-15 02:15:00,
2013-05-14 22:20:00,53.1,43.0,29.79,ESE,112,6.2,6.2,68,0.00,,BKN220,0.00,VWS V14.01,2013-05-15 02:20:00,
2013-05-14 22:25:00,52.9,42.8,29.79,ESE,112,6.2,6.2,68,0.00,,BKN220,0.00,VWS V14.01,2013-05-15 02:25:00,
2013-05-14 22:30:00,52.9,42.8,29.79,ESE,112,6.2,6.2,68,0.00,,BKN220,0.00,VWS V14.01,2013-05-15 02:30:00,
2013-05-14 22:35:00,52.9,42.8,29.79,East,90,0.0,0.0,68,0.00,,BKN220,0.00,VWS V14.01,2013-05-15 02:35:00,
2013-05-14 22:40:00,52.9,43.0,29.79,ESE,112,0.0,0.0,69,0.00,,BKN220,0.00,VWS V14.01,2013-05-15 02:40:00,
2013-05-14 22:45:00,52.9,43.0,29.79,ESE,112,0.0,0.0,69,0.00,,BKN220,0.00,VWS V14.01,2013-05-15 02:45:00,
2013-05-14 22:50:00,52.9,43.0,29.79,East,90,0.0,0.0,69,0.00,,BKN220,0.00,VWS V14.01,2013-05-15 02:50:00,
2013-05-14 22:55:00,52.9,43.0,29.82,South,180,6.2,6.2,69,0.00,,BKN220,0.00,VWS V14.01,2013-05-15 02:55:00,
2013-05-14 23:00:00,52.9,43.2,29.82,SSE,158,6.2,6.2,70,0.00,,-RA,0.00,VWS V14.01,2013-05-15 03:00:00,
2013-05-14 23:05:00,52.9,43.2,29.82,SSE,158,0.0,4.8,70,0.00,,-RA,0.00,VWS V14.01,2013-05-15 03:05:00,
2013-05-14 23:10:00,52.9,43.2,29.82,South,180,3.4,3.4,70,0.00,,-RA,0.00,VWS V14.01,2013-05-15 03:10:00,
2013-05-14 23:15:00,52.7,43.0,29.82,SSE,158,0.0,0.0,70,0.00,,-RA,0.00,VWS V14.01,2013-05-15 03:15:00,
2013-05-14 23:20:00,52.7,43.0,29.82,SSE,158,0.0,0.0,70,0.00,,-RA,0.00,VWS V14.01,2013-05-15 03:20:00,
2013-05-14 23:25:00,52.7,43.2,29.82,SSE,158,0.0,0.0,70,0.00,,-RA,0.00,VWS V14.01,2013-05-15 03:25:00,
2013-05-14 23:30:00,52.7,43.6,29.82,SSE,158,0.0,1.9,71,0.00,,-RA,0.00,VWS V14.01,2013-05-15 03:30:00,
2013-05-14 23:35:00,52.5,44.0,29.82,SSE,158,2.8,2.8,72,0.00,,-RA,0.00,VWS V14.01,2013-05-15 03:35:00,
2013-05-14 23:40:00,52.3,44.0,29.79,SSE,158,0.0,0.0,73,0.00,,-RA,0.00,VWS V14.01,2013-05-15 03:40:00,
2013-05-14 23:45:00,52.2,43.8,29.79,ENE,68,2.8,5.8,73,0.00,,-RA,0.00,VWS V14.01,2013-05-15 03:45:00,
2013-05-14 23:50:00,52.0,43.6,29.79,East,90,0.0,0.0,73,0.00,,-RA,0.00,VWS V14.01,2013-05-15 03:50:00,
2013-05-14 23:55:00,51.8,43.8,29.79,South,180,3.4,3.4,74,0.00,,-RA,0.00,VWS V14.01,2013-05-15 03:55:00,